Time;durP1;ratioP1;P1;durP2;ratioP2;P2;SDS_P1;SDS_P2;PMS_P1;PMS_P2;Temp;Humidity;BMP_temperature;BMP_pressure;BME280_temperature;BME280_humidity;BME280_pressure;Samples;Min_cycle;Max_cycle;Signal;HPM_P1;HPM_P2
2022/10/01 00:01:24;;;;;;;4.35;3.03;;;;;;;13.85;55.96;99341.81;4976042;28;20065;-76
2022/10/01 00:03:51;;;;;;;3.58;2.95;;;;;;;13.92;55.45;99355.97;4993300;28;20065;-77
2022/10/01 00:06:23;;;;;;;5.28;3.10;;;;;;;13.89;55.56;99339.91;4993408;28;20058;-78
2022/10/01 00:08:52;;;;;;;4.38;3.17;;;;;;;13.80;55.65;99345.72;4994389;28;20496;-80
2022/10/01 00:11:22;;;;;;;4.93;3.50;;;;;;;13.87;56.10;99322.66;4994409;28;20054;-76
2022/10/01 00:13:50;;;;;;;5.45;3.60;;;;;;;13.86;55.66;99313.47;4975230;28;20069;-76
2022/10/01 00:16:19;;;;;;;4.88;3.40;;;;;;;13.97;55.37;99310.91;4974886;28;20515;-76
2022/10/01 00:18:47;;;;;;;4.28;3.53;;;;;;;13.99;55.88;99319.75;4990831;28;20069;-76
2022/10/01 00:21:18;;;;;;;5.13;3.45;;;;;;;13.96;55.58;99300.88;4981693;28;20058;-76
2022/10/01 00:23:46;;;;;;;4.28;3.65;;;;;;;13.89;55.33;99311.91;4992501;28;20054;-76
2022/10/01 00:26:17;;;;;;;5.22;3.20;;;;;;;13.84;55.50;99299.03;4990881;28;20050;-77
2022/10/01 00:28:46;;;;;;;5.70;3.42;;;;;;;13.79;55.91;99294.50;4975314;28;20059;-78
2022/10/01 00:31:15;;;;;;;4.95;3.15;;;;;;;13.80;56.01;99275.75;4994064;28;20065;-77
2022/10/01 00:33:47;;;;;;;8.88;3.55;;;;;;;13.85;55.88;99288.63;4993807;28;20065;-76
2022/10/01 00:36:15;;;;;;;5.45;3.35;;;;;;;13.88;55.48;99287.88;4989908;28;20054;-76
2022/10/01 00:38:44;;;;;;;4.63;3.20;;;;;;;13.77;54.96;99276.44;4991758;28;20122;-77
2022/10/01 00:41:11;;;;;;;;;;;;;;;13.79;55.55;99302.09;4994722;28;20077;-76
2022/10/01 00:43:45;;;;;;;5.07;2.80;;;;;;;13.68;55.56;99268.25;4993661;28;20264;-77
2022/10/01 00:46:19;;;;;;;4.68;3.40;;;;;;;13.66;55.60;99258.63;4989443;28;20065;-76
2022/10/01 00:48:57;;;;;;;5.63;3.38;;;;;;;13.65;55.18;99257.81;4993619;28;20058;-76
2022/10/01 00:51:26;;;;;;;3.55;3.20;;;;;;;13.70;55.15;99262.31;4990978;28;20069;-77
2022/10/01 00:54:01;;;;;;;3.58;2.78;;;;;;;13.79;55.98;99257.31;5007066;28;20058;-77
2022/10/01 00:56:30;;;;;;;3.67;2.78;;;;;;;13.65;55.61;99271.81;5000106;28;20054;-77
2022/10/01 00:58:59;;;;;;;4.72;2.85;;;;;;;13.77;55.15;99274.50;4992576;28;20054;-76
2022/10/01 01:01:27;;;;;;;3.17;2.67;;;;;;;13.75;55.24;99245.22;4995023;28;20065;-84
2022/10/01 01:03:56;;;;;;;3.80;2.90;;;;;;;13.79;54.88;99257.31;4977360;28;20063;-84
2022/10/01 01:06:23;;;;;;;3.05;2.75;;;;;;;13.79;54.67;99265.72;4985800;28;20065;-83
2022/10/01 01:08:53;;;;;;;4.53;2.80;;;;;;;13.66;56.00;99248.22;4996584;28;20056;-84
2022/10/01 01:11:31;;;;;;;6.00;2.75;;;;;;;13.58;55.98;99235.25;4997396;28;20080;-85
2022/10/01 01:14:09;;;;;;;3.28;2.55;;;;;;;13.59;56.11;99225.69;4992380;28;20065;-84
2022/10/01 01:16:41;;;;;;;3.67;2.60;;;;;;;13.61;55.61;99228.94;4994755;28;20059;-84
2022/10/01 01:19:22;;;;;;;4.13;2.85;;;;;;;13.65;56.19;99224.25;4993573;28;20161;-84
2022/10/01 01:21:55;;;;;;;14.98;3.30;;;;;;;13.58;56.69;99238.06;4990467;28;20397;-84
2022/10/01 01:24:40;;;;;;;4.18;2.92;;;;;;;13.44;56.98;99227.38;4975491;28;20504;-84
2022/10/01 01:27:25;;;;;;;3.78;3.15;;;;;;;13.51;58.51;99224.72;4992012;28;20058;-84
2022/10/01 01:29:59;;;;;;;4.75;3.00;;;;;;;13.44;60.90;99232.97;4993491;28;20611;-84
2022/10/01 01:32:30;;;;;;;4.75;3.05;;;;;;;13.34;62.39;99234.31;4985961;28;20070;-84
2022/10/01 01:35:01;;;;;;;5.55;3.50;;;;;;;13.09;65.00;99225.31;4990643;28;20058;-82
2022/10/01 01:37:34;;;;;;;5.03;3.90;;;;;;;12.90;67.05;99220.44;4992206;28;20058;-82
2022/10/01 01:40:04;;;;;;;5.88;4.20;;;;;;;12.32;69.89;99214.53;4992478;28;20070;-82
2022/10/01 01:42:35;;;;;;;5.57;4.60;;;;;;;12.18;73.03;99210.19;4996301;28;20054;-83
2022/10/01 01:45:08;;;;;;;6.13;4.78;;;;;;;12.17;72.88;99202.94;4994493;28;20054;-82
2022/10/01 01:47:40;;;;;;;9.00;5.38;;;;;;;11.94;73.29;99187.94;4995445;28;20069;-81
2022/10/01 01:50:08;;;;;;;6.40;4.22;;;;;;;11.88;73.13;99198.53;4996223;28;20498;-82
2022/10/01 01:52:35;;;;;;;5.82;5.00;;;;;;;11.82;74.72;99182.38;4981816;28;20051;-81
2022/10/01 01:55:06;;;;;;;5.57;4.72;;;;;;;11.69;75.34;99168.47;4996154;28;20395;-82
2022/10/01 01:57:34;;;;;;;6.45;5.05;;;;;;;11.62;76.68;99159.91;4995265;28;20452;-82
2022/10/01 02:00:02;;;;;;;5.03;4.40;;;;;;;11.59;76.32;99155.06;4995762;28;20054;-82
2022/10/01 02:02:34;;;;;;;6.13;5.30;;;;;;;11.59;77.06;99171.78;4993952;28;20058;-81
2022/10/01 02:05:05;;;;;;;8.00;5.78;;;;;;;11.29;78.20;99137.81;4993433;28;20066;-82
2022/10/01 02:08:14;;;;;;;7.50;5.85;;;;;;;11.22;80.18;99112.53;4992754;28;20058;-82
2022/10/01 02:10:59;;;;;;;9.35;5.40;;;;;;;11.25;80.08;99106.22;4993511;28;20062;-83
2022/10/01 02:13:37;;;;;;;7.35;5.47;;;;;;;11.11;80.85;99089.91;4992934;28;20058;-81
2022/10/01 02:16:17;;;;;;;7.45;5.43;;;;;;;10.98;81.37;99086.31;4993010;28;20073;-82
2022/10/01 02:18:55;;;;;;;30.42;6.88;;;;;;;11.00;83.14;99080.41;4992509;28;20510;-81
2022/10/01 02:21:31;;;;;;;8.70;6.18;;;;;;;10.90;85.41;99065.00;4991621;28;20534;-81
2022/10/01 02:24:04;;;;;;;9.43;6.15;;;;;;;10.99;85.84;99064.84;4993098;28;20058;-81
2022/10/01 02:26:36;;;;;;;11.13;7.93;;;;;;;11.03;86.32;99066.59;4992891;28;20058;-81
2022/10/01 02:29:10;;;;;;;12.50;9.32;;;;;;;11.08;86.87;99074.69;4993124;28;20061;-81
2022/10/01 02:31:37;;;;;;;5.95;5.35;;;;;;;11.13;84.23;99082.81;4993253;28;20078;-81
2022/10/01 02:34:14;;;;;;;8.90;6.20;;;;;;;11.25;83.47;99079.16;4992747;28;20058;-81
2022/10/01 02:36:45;;;;;;;5.70;5.05;;;;;;;11.30;81.15;99053.84;4992177;28;20095;-81
2022/10/01 02:42:00;;;;;;;6.95;4.90;;;;;;;11.29;83.69;99054.19;4991345;28;20054;-81
2022/10/01 02:44:36;;;;;;;5.75;4.60;;;;;;;11.25;82.86;99068.00;4991992;28;20537;-81
2022/10/01 02:47:10;;;;;;;5.38;4.60;;;;;;;11.31;81.25;99041.50;4992602;28;20058;-81
2022/10/01 02:49:40;;;;;;;5.78;4.70;;;;;;;11.29;81.28;99068.94;4998674;28;20447;-80
2022/10/01 02:52:13;;;;;;;7.25;5.70;;;;;;;11.35;81.40;99050.78;4992955;28;20062;-81
2022/10/01 02:54:48;;;;;;;16.13;5.18;;;;;;;11.09;82.85;99067.97;4992897;28;20491;-80
2022/10/01 02:57:22;;;;;;;6.50;4.65;;;;;;;11.05;84.46;99047.53;4992634;28;20059;-77
2022/10/01 02:59:49;;;;;;;6.75;4.88;;;;;;;11.10;85.28;99060.41;4991566;28;20058;-76
2022/10/01 03:02:16;;;;;;;6.93;4.72;;;;;;;10.92;85.52;99055.13;4992592;28;20062;-77
2022/10/01 03:04:46;;;;;;;6.07;4.85;;;;;;;10.70;86.00;99050.03;4991928;28;20054;-77
2022/10/01 03:07:14;;;;;;;7.43;5.90;;;;;;;10.57;88.16;99055.63;4992070;28;20503;-77
2022/10/01 03:09:42;;;;;;;10.80;7.20;;;;;;;10.50;90.30;99060.16;4992446;28;20065;-77
2022/10/01 03:12:09;;;;;;;11.38;7.80;;;;;;;10.46;90.59;99071.19;4990611;28;20058;-77
2022/10/01 03:14:38;;;;;;;9.40;5.82;;;;;;;10.39;91.71;99051.44;4993861;28;20483;-76
2022/10/01 03:17:06;;;;;;;9.05;6.32;;;;;;;10.39;92.37;99045.06;4996543;28;20073;-77
2022/10/01 03:19:33;;;;;;;8.38;7.00;;;;;;;10.49;92.38;99028.72;4995687;28;20502;-76
2022/10/01 03:22:03;;;;;;;12.13;7.70;;;;;;;10.45;93.17;99019.44;4996049;28;20065;-77
2022/10/01 03:24:31;;;;;;;9.23;7.25;;;;;;;10.41;93.44;99006.56;4995074;28;20393;-76
2022/10/01 03:26:58;;;;;;;9.77;6.85;;;;;;;10.52;94.39;99016.06;4994775;28;20066;-76
2022/10/01 03:29:25;;;;;;;10.30;6.47;;;;;;;10.55;94.29;99021.75;4995920;28;20062;-77
2022/10/01 03:31:53;;;;;;;7.43;6.57;;;;;;;10.51;92.43;99018.03;4996273;28;20070;-76
2022/10/01 03:34:21;;;;;;;9.20;7.50;;;;;;;10.42;93.30;99013.78;4995402;28;20058;-77
2022/10/01 03:36:51;;;;;;;13.18;5.80;;;;;;;10.42;96.03;98999.84;4995949;28;20058;-77
2022/10/01 03:39:19;;;;;;;7.85;6.60;;;;;;;10.52;94.79;99036.38;4995356;28;20057;-77
2022/10/01 03:41:47;;;;;;;12.50;8.97;;;;;;;10.39;95.21;99004.13;4993780;28;20055;-77
2022/10/01 03:44:14;;;;;;;13.93;8.75;;;;;;;10.46;97.50;99007.16;4995320;28;20070;-80
2022/10/01 03:46:42;;;;;;;11.38;7.40;;;;;;;10.63;96.96;99041.47;4995477;28;20058;-76
2022/10/01 03:49:09;;;;;;;10.32;6.45;;;;;;;10.58;94.20;99023.00;4995898;28;20058;-76
2022/10/01 03:51:38;;;;;;;7.05;5.78;;;;;;;10.62;93.34;99042.63;4994478;28;20054;-77
2022/10/01 03:54:07;;;;;;;7.47;6.00;;;;;;;10.66;93.84;99013.72;4995125;28;20065;-77
2022/10/01 03:56:36;;;;;;;9.48;6.82;;;;;;;10.66;94.30;99029.63;4994706;28;20054;-77
2022/10/01 03:59:04;;;;;;;12.38;9.15;;;;;;;10.77;95.65;98997.34;4995318;28;20054;-77
2022/10/01 04:01:31;;;;;;;8.90;6.20;;;;;;;10.50;96.25;99002.50;4995440;28;20061;-76
2022/10/01 04:03:58;;;;;;;8.57;6.90;;;;;;;10.51;97.77;98992.19;4995032;28;20058;-77
2022/10/01 04:06:25;;;;;;;10.52;6.50;;;;;;;10.39;98.11;98998.56;4994285;28;20165;-76
2022/10/01 04:08:53;;;;;;;11.18;6.85;;;;;;;10.32;100.00;98999.16;4994994;28;20396;-76
2022/10/01 04:11:22;;;;;;;18.63;7.97;;;;;;;10.26;100.00;98999.72;4987841;28;20060;-76
2022/10/01 04:13:50;;;;;;;13.48;7.20;;;;;;;10.13;100.00;99005.28;4975286;28;20070;-77
2022/10/01 04:16:18;;;;;;;23.42;9.90;;;;;;;10.11;100.00;98968.66;4975651;28;20062;-77
2022/10/01 04:18:45;;;;;;;21.38;12.88;;;;;;;10.03;100.00;98947.31;4975587;28;20058;-77
2022/10/01 04:21:14;;;;;;;9.80;7.32;;;;;;;9.97;100.00;98948.69;4974863;28;20059;-76
2022/10/01 04:23:41;;;;;;;12.15;9.43;;;;;;;10.01;100.00;98924.59;4989106;28;20065;-75
2022/10/01 04:26:11;;;;;;;9.77;7.28;;;;;;;10.10;100.00;98910.56;4993017;28;20062;-76
2022/10/01 04:28:38;;;;;;;11.60;7.55;;;;;;;10.04;100.00;98932.25;4993152;28;20061;-75
2022/10/01 04:31:25;;;;;;;7.03;5.38;;;;;;;10.04;100.00;98937.81;4994147;28;20065;-75
2022/10/01 04:33:53;;;;;;;7.15;4.80;;;;;;;9.97;100.00;98932.00;4994191;28;20061;-75
2022/10/01 04:36:24;;;;;;;13.32;5.55;;;;;;;9.92;100.00;98923.91;4993807;28;20058;-76
2022/10/01 04:38:52;;;;;;;9.20;6.40;;;;;;;10.05;100.00;98936.66;4994073;28;20058;-76
2022/10/01 04:41:20;;;;;;;8.13;5.57;;;;;;;9.92;100.00;98929.47;4993667;28;20058;-77
2022/10/01 04:43:47;;;;;;;9.38;6.43;;;;;;;10.00;100.00;98930.53;4994576;28;20411;-76
2022/10/01 04:46:16;;;;;;;6.30;4.03;;;;;;;10.02;100.00;98926.22;4994122;28;20058;-75
2022/10/01 04:48:43;;;;;;;3.88;2.90;;;;;;;10.03;100.00;98924.25;4994415;28;20078;-75
2022/10/01 04:51:11;;;;;;;5.03;4.15;;;;;;;10.07;100.00;98895.38;4994152;28;20487;-75
2022/10/01 04:53:41;;;;;;;6.47;5.05;;;;;;;10.10;100.00;98914.19;4994067;28;20058;-75
2022/10/01 04:56:09;;;;;;;4.82;3.40;;;;;;;10.10;100.00;98902.22;4993711;28;20062;-75
2022/10/01 04:58:37;;;;;;;5.15;3.08;;;;;;;10.13;100.00;98913.47;4993772;28;20058;-76
2022/10/01 05:01:04;;;;;;;4.43;3.75;;;;;;;10.23;100.00;98891.91;4994234;28;20069;-76
2022/10/01 05:03:33;;;;;;;6.10;4.40;;;;;;;10.20;100.00;98881.47;4993225;28;20161;-75
2022/10/01 05:06:00;;;;;;;3.95;2.63;;;;;;;10.09;100.00;98884.72;4993772;28;20062;-76
2022/10/01 05:08:28;;;;;;;3.53;2.88;;;;;;;10.10;100.00;98875.22;4993272;28;20487;-75
2022/10/01 05:10:55;;;;;;;4.75;3.88;;;;;;;10.34;100.00;98895.84;4994277;28;20391;-75
2022/10/01 05:13:22;;;;;;;5.25;4.03;;;;;;;10.38;100.00;98907.88;4993732;28;20054;-76
2022/10/01 05:15:52;;;;;;;3.03;2.72;;;;;;;10.45;100.00;98896.16;4993591;28;20065;-76
2022/10/01 05:18:19;;;;;;;3.90;3.53;;;;;;;10.58;100.00;98917.22;4993339;28;20062;-76
2022/10/01 05:20:48;;;;;;;3.78;3.03;;;;;;;10.64;100.00;98903.88;4993934;28;20061;-77
2022/10/01 05:23:15;;;;;;;3.58;2.72;;;;;;;10.75;100.00;98894.66;4992266;28;20561;-76
2022/10/01 05:25:45;;;;;;;4.20;3.35;;;;;;;10.87;100.00;98884.63;4992708;28;20058;-76
2022/10/01 05:28:12;;;;;;;3.17;2.53;;;;;;;10.88;100.00;98864.78;4993565;28;20055;-76
2022/10/01 05:30:40;;;;;;;2.20;1.75;;;;;;;10.87;100.00;98891.00;4993036;28;20054;-76
2022/10/01 05:33:07;;;;;;;2.67;1.85;;;;;;;11.04;100.00;98878.72;4993288;28;20121;-76
2022/10/01 05:35:34;;;;;;;2.67;2.17;;;;;;;11.06;100.00;98892.31;4993401;28;20058;-76
2022/10/01 05:38:03;;;;;;;3.72;2.00;;;;;;;11.18;96.67;98920.09;4990626;28;20065;-76
2022/10/01 05:40:30;;;;;;;2.40;1.47;;;;;;;11.24;94.93;98904.75;4986358;28;20066;-76
2022/10/01 05:42:59;;;;;;;3.30;1.75;;;;;;;11.29;94.46;98907.25;4993170;28;20381;-76
2022/10/01 05:45:27;;;;;;;3.00;1.98;;;;;;;11.38;94.71;98898.72;4993244;28;20050;-76
2022/10/01 05:47:59;;;;;;;2.30;1.80;;;;;;;11.42;93.80;98905.19;4993631;28;20058;-76
2022/10/01 05:50:30;;;;;;;2.17;1.48;;;;;;;11.52;92.58;98931.75;4992992;28;20495;-76
2022/10/01 05:52:58;;;;;;;3.38;1.92;;;;;;;11.52;92.71;98912.22;4993548;28;20054;-76
2022/10/01 05:55:31;;;;;;;3.15;1.20;;;;;;;11.52;91.56;98931.75;4992157;28;20062;-76
2022/10/01 05:58:00;;;;;;;2.15;1.10;;;;;;;11.57;92.15;98911.97;4993392;28;20058;-76
2022/10/01 06:00:28;;;;;;;2.43;1.50;;;;;;;11.58;91.76;98931.13;4993378;28;20058;-76
2022/10/01 06:02:55;;;;;;;1.95;1.33;;;;;;;11.61;92.83;98929.59;4994071;28;20054;-76
2022/10/01 06:05:24;;;;;;;2.65;1.15;;;;;;;11.61;91.18;98940.75;4993065;28;20062;-78
2022/10/01 06:07:52;;;;;;;1.83;1.15;;;;;;;11.65;91.55;98952.81;4993010;28;20062;-76
2022/10/01 06:10:20;;;;;;;1.52;1.05;;;;;;;11.65;90.96;98941.66;4992390;28;20046;-76
2022/10/01 06:12:49;;;;;;;1.40;0.90;;;;;;;11.58;91.24;98963.78;4993479;28;20066;-76
2022/10/01 06:15:18;;;;;;;1.60;0.95;;;;;;;11.65;90.97;98952.00;4993338;28;20054;-76
2022/10/01 06:17:45;;;;;;;1.60;0.90;;;;;;;11.74;91.74;98939.50;4994036;28;20054;-76
2022/10/01 06:20:14;;;;;;;1.35;0.60;;;;;;;11.70;90.11;98949.75;4994292;28;20058;-76
2022/10/01 06:22:42;;;;;;;1.10;0.70;;;;;;;11.70;90.10;98983.22;4992813;28;20050;-76
2022/10/01 06:25:11;;;;;;;1.30;0.80;;;;;;;11.74;90.58;98972.19;4994941;28;20073;-76
2022/10/01 06:27:38;;;;;;;1.55;0.60;;;;;;;11.70;90.28;98971.28;5004105;28;20041;-77
2022/10/01 06:30:09;;;;;;;1.80;1.10;;;;;;;11.82;91.72;98968.38;5017025;28;20046;-77
2022/10/01 06:32:36;;;;;;;1.50;0.85;;;;;;;11.93;91.50;98969.50;5017294;28;20070;-77
2022/10/01 06:35:04;;;;;;;1.17;0.60;;;;;;;11.91;90.78;98980.22;5017440;28;20043;-77
2022/10/01 06:37:31;;;;;;;2.08;0.68;;;;;;;11.95;90.87;98971.94;5016989;28;20042;-77
2022/10/01 06:39:58;;;;;;;2.60;1.15;;;;;;;12.10;92.09;98973.91;5017170;28;20495;-77
2022/10/01 06:42:26;;;;;;;1.30;0.68;;;;;;;12.10;90.94;98985.06;5017151;28;20054;-79
2022/10/01 06:44:53;;;;;;;1.20;0.80;;;;;;;12.24;91.57;98997.75;5017189;28;20042;-76
2022/10/01 06:47:21;;;;;;;1.95;0.80;;;;;;;12.23;91.00;98985.78;5017204;28;20061;-76
2022/10/01 06:49:49;;;;;;;1.20;0.65;;;;;;;12.27;90.78;98977.50;5020295;28;20054;-76
2022/10/01 06:54:58;;;;;;;1.42;0.70;;;;;;;12.36;91.18;98978.09;5011319;28;20038;-76
2022/10/01 06:57:26;;;;;;;2.03;1.33;;;;;;;12.36;90.89;98992.06;5007165;28;20506;-78
2022/10/01 06:59:53;;;;;;;1.90;0.85;;;;;;;12.35;90.50;98979.28;4997043;28;20411;-76
2022/10/01 07:02:26;;;;;;;1.20;0.70;;;;;;;12.38;90.47;98984.94;4996292;28;20693;-76
2022/10/01 07:04:55;;;;;;;1.15;0.80;;;;;;;12.37;89.31;98986.13;4997027;28;20495;-76
2022/10/01 07:07:23;;;;;;;2.55;1.00;;;;;;;12.33;89.79;98988.00;4996343;28;20061;-76
2022/10/01 07:09:50;;;;;;;1.27;0.50;;;;;;;12.27;89.29;98988.66;4996707;28;20054;-77
2022/10/01 07:12:18;;;;;;;0.93;0.60;;;;;;;12.33;89.82;98970.47;4996552;28;20057;-76
2022/10/01 07:14:45;;;;;;;1.33;0.90;;;;;;;12.44;90.44;98974.28;4996495;28;20063;-76
2022/10/01 07:17:13;;;;;;;1.30;0.90;;;;;;;12.47;90.51;98981.94;4996407;28;20062;-76
2022/10/01 07:19:42;;;;;;;1.00;0.60;;;;;;;12.41;88.47;98989.00;4995361;28;20058;-76
2022/10/01 07:22:09;;;;;;;0.95;0.60;;;;;;;12.44;89.32;98982.66;4992304;28;20050;-76
2022/10/01 07:24:36;;;;;;;1.20;0.70;;;;;;;12.37;88.12;98980.53;4992834;28;20066;-76
2022/10/01 07:27:04;;;;;;;1.20;0.70;;;;;;;12.38;87.00;98978.53;4990267;28;20050;-75
2022/10/01 07:29:32;;;;;;;1.30;0.70;;;;;;;12.40;87.73;98970.59;4995866;28;20058;-76
2022/10/01 07:32:00;;;;;;;1.55;0.80;;;;;;;12.41;87.79;98980.63;4996658;28;20062;-75
2022/10/01 07:34:32;;;;;;;2.03;1.00;;;;;;;12.52;88.04;98975.28;4992415;28;20057;-77
2022/10/01 07:37:00;;;;;;;1.55;1.05;;;;;;;12.67;88.12;98988.38;4994636;28;20062;-75
2022/10/01 07:39:28;;;;;;;1.35;0.90;;;;;;;12.72;87.45;98988.06;4995715;28;20058;-76
2022/10/01 07:41:57;;;;;;;2.30;0.90;;;;;;;12.76;86.99;98985.38;4995978;28;20074;-75
2022/10/01 07:44:25;;;;;;;2.42;1.45;;;;;;;12.71;89.34;98985.69;4995880;28;20504;-76
2022/10/01 07:46:52;;;;;;;2.72;1.48;;;;;;;12.77;88.93;98996.19;4995284;28;20069;-76
2022/10/01 07:49:20;;;;;;;3.65;1.60;;;;;;;12.81;89.83;99004.66;4994364;28;20062;-75
2022/10/01 07:51:47;;;;;;;5.43;2.97;;;;;;;12.76;91.20;99005.72;4995511;28;20061;-75
2022/10/01 07:54:20;;;;;;;6.43;4.70;;;;;;;12.75;92.56;98998.53;4995409;28;20058;-75
2022/10/01 07:56:48;;;;;;;7.57;4.28;;;;;;;12.87;94.04;99010.75;4994449;28;20058;-76
2022/10/01 07:59:15;;;;;;;8.98;4.90;;;;;;;13.01;94.64;99011.06;4992316;28;20070;-75
2022/10/01 08:01:42;;;;;;;5.63;4.15;;;;;;;13.14;93.63;99008.94;4993638;28;20077;-77
2022/10/01 08:06:56;;;;;;;3.35;2.95;;;;;;;13.35;93.70;99003.00;4995231;28;20061;-76
2022/10/01 08:09:26;;;;;;;8.13;5.28;;;;;;;13.42;92.19;99021.91;4993971;28;20059;-75
2022/10/01 08:11:54;;;;;;;4.40;2.20;;;;;;;13.29;90.08;99019.28;4992113;28;20073;-76
2022/10/01 08:14:21;;;;;;;5.47;3.50;;;;;;;13.31;90.06;99025.31;4993424;28;20066;-73
2022/10/01 08:16:49;;;;;;;6.07;3.38;;;;;;;13.20;90.46;99022.25;4993498;28;20054;-72
2022/10/01 08:19:17;;;;;;;4.30;3.90;;;;;;;13.32;90.78;99021.34;4993274;28;20054;-75
2022/10/01 08:21:44;;;;;;;3.85;3.45;;;;;;;13.35;90.54;99023.38;4985753;28;20051;-74
2022/10/01 08:24:13;;;;;;;2.83;2.28;;;;;;;13.35;89.48;99031.75;4993161;28;20415;-74
2022/10/01 08:26:42;;;;;;;4.72;4.00;;;;;;;13.45;90.21;99032.38;4992181;28;20073;-75
2022/10/01 08:29:12;;;;;;;3.47;3.17;;;;;;;13.50;89.96;99034.84;4990989;28;20059;-75
2022/10/01 08:31:46;;;;;;;4.97;4.22;;;;;;;13.62;90.95;99040.28;4988301;28;20510;-76
2022/10/01 08:34:13;;;;;;;4.32;3.00;;;;;;;13.68;90.16;99038.81;4990253;28;20046;-75
2022/10/01 08:36:43;;;;;;;3.80;3.25;;;;;;;13.97;90.55;99042.16;4990181;28;20062;-75
2022/10/01 08:39:11;;;;;;;;;;;;;;;14.25;88.06;99047.44;4984838;28;20062;-74
2022/10/01 08:41:50;;;;;;;4.97;2.75;;;;;;;14.27;87.31;99047.88;4992265;28;19925;-75
2022/10/01 08:44:20;;;;;;;2.28;2.05;;;;;;;14.33;86.78;99056.78;4990264;28;20427;-74
2022/10/01 08:46:50;;;;;;;4.05;2.20;;;;;;;14.62;86.06;99066.47;4989251;28;20509;-74
2022/10/01 08:49:23;;;;;;;2.40;1.52;;;;;;;14.64;84.49;99063.31;4988033;28;20054;-75
2022/10/01 08:51:56;;;;;;;4.65;2.58;;;;;;;14.73;85.76;99072.25;4988278;28;20400;-74
2022/10/01 08:54:35;;;;;;;2.30;2.10;;;;;;;14.84;84.22;99069.59;4992369;28;20061;-74
2022/10/01 08:57:11;;;;;;;2.60;1.92;;;;;;;14.86;84.36;99082.06;4990082;28;20054;-74
2022/10/01 08:59:42;;;;;;;2.67;1.80;;;;;;;14.86;83.52;99078.44;4993000;28;20423;-74
2022/10/01 09:02:22;;;;;;;2.08;1.88;;;;;;;14.94;83.04;99086.59;4985944;28;20058;-74
2022/10/01 09:04:54;;;;;;;3.47;1.60;;;;;;;15.20;84.60;99080.16;4975773;28;20416;-75
2022/10/01 09:07:37;;;;;;;2.13;1.40;;;;;;;15.27;82.28;99087.84;4993048;28;20483;-74
2022/10/01 09:10:18;;;;;;;1.48;1.35;;;;;;;15.14;80.20;99083.66;4979532;28;20058;-74
2022/10/01 09:12:50;;;;;;;1.58;1.33;;;;;;;15.18;80.62;99085.34;4993013;28;20054;-74
2022/10/01 09:15:26;;;;;;;2.13;1.42;;;;;;;15.34;79.45;99092.75;4991256;28;20065;-74
2022/10/01 09:18:04;;;;;;;2.97;1.58;;;;;;;15.35;80.96;99095.19;4992214;28;20063;-74
2022/10/01 09:20:38;;;;;;;2.10;1.60;;;;;;;15.47;79.14;99096.13;4992714;28;20073;-74
2022/10/01 09:23:19;;;;;;;2.95;1.42;;;;;;;16.09;77.50;99096.47;4946737;28;1332430;-75
2022/10/01 09:25:50;;;;;;;3.53;1.40;;;;;;;16.33;76.06;99099.91;4998603;28;20054;-74
2022/10/01 09:28:21;;;;;;;1.52;1.30;;;;;;;16.11;76.27;99096.09;4991971;28;20423;-75
2022/10/01 09:30:56;;;;;;;3.53;1.88;;;;;;;15.98;77.86;99099.19;4985493;28;20526;-74
2022/10/01 09:33:29;;;;;;;3.05;1.75;;;;;;;15.97;76.83;99099.56;4993396;28;20505;-74
2022/10/01 09:36:05;;;;;;;3.70;2.78;;;;;;;15.87;77.48;99097.44;4993099;28;20522;-74
2022/10/01 09:38:37;;;;;;;3.28;2.10;;;;;;;15.73;77.71;99098.91;4992469;28;20065;-74
2022/10/01 09:41:04;;;;;;;3.20;2.10;;;;;;;15.63;77.91;99099.53;4993008;28;20054;-75
2022/10/01 09:43:36;;;;;;;3.83;2.40;;;;;;;15.48;77.55;99092.13;4993399;28;20061;-73
2022/10/01 09:46:12;;;;;;;2.83;2.22;;;;;;;15.51;78.74;99105.41;4992250;28;20069;-74
2022/10/01 09:48:47;;;;;;;3.63;2.58;;;;;;;15.76;78.69;99109.34;4991908;28;20065;-73
2022/10/01 09:51:18;;;;;;;4.60;2.70;;;;;;;15.81;79.12;99111.81;4992328;28;20423;-74
2022/10/01 09:53:50;;;;;;;4.13;2.67;;;;;;;15.85;78.58;99097.00;4992500;28;20066;-73
2022/10/01 09:56:24;;;;;;;4.30;3.15;;;;;;;15.97;79.69;99105.16;4989063;28;20065;-74
2022/10/01 09:59:01;;;;;;;3.50;2.70;;;;;;;16.12;78.57;99098.50;4988699;28;20059;-74
2022/10/01 10:01:41;;;;;;;3.30;2.38;;;;;;;16.00;76.65;99099.59;4991760;28;20074;-72
2022/10/01 10:04:09;;;;;;;3.13;2.78;;;;;;;15.88;77.43;99115.91;4986631;28;20054;-74
2022/10/01 10:06:37;;;;;;;3.30;2.92;;;;;;;15.76;78.97;99114.97;4985064;28;20054;-74
2022/10/01 10:09:05;;;;;;;4.78;3.17;;;;;;;15.61;78.83;99122.38;4990892;28;20423;-77
2022/10/01 10:11:35;;;;;;;4.28;3.53;;;;;;;15.67;80.43;99122.84;4991375;28;20061;-73
2022/10/01 10:14:04;;;;;;;7.15;4.80;;;;;;;15.70;80.80;99122.06;4992516;28;20407;-74
2022/10/01 10:16:34;;;;;;;4.50;4.10;;;;;;;15.68;81.55;99143.31;4992882;28;20058;-74
2022/10/01 10:19:09;;;;;;;6.60;4.88;;;;;;;15.62;82.42;99132.41;4992632;28;20058;-74
2022/10/01 10:21:36;;;;;;;6.18;5.57;;;;;;;15.47;83.37;99141.81;4992396;28;20062;-74
2022/10/01 10:24:06;;;;;;;13.95;11.77;;;;;;;15.22;87.03;99153.53;4995737;28;20059;-75
2022/10/01 10:26:37;;;;;;;14.77;9.65;;;;;;;15.05;88.90;99151.22;4994266;28;20058;-74
2022/10/01 10:29:08;;;;;;;10.70;8.10;;;;;;;15.10;89.92;99155.69;4996709;28;20406;-74
2022/10/01 10:31:41;;;;;;;11.07;8.82;;;;;;;15.05;87.88;99158.84;4994747;28;20407;-74
2022/10/01 10:34:17;;;;;;;41.28;11.18;;;;;;;14.60;92.86;99161.31;4996697;28;20392;-75
2022/10/01 10:36:46;;;;;;;20.08;11.82;;;;;;;14.32;97.59;99161.56;4996684;28;20062;-74
2022/10/01 10:39:20;;;;;;;15.02;8.75;;;;;;;14.30;95.53;99163.94;4996763;28;20494;-76
2022/10/01 10:41:50;;;;;;;8.45;7.25;;;;;;;14.32;94.84;99164.38;4996374;28;20062;-74
2022/10/01 10:44:21;;;;;;;11.38;9.05;;;;;;;14.38;96.28;99171.28;4996376;28;20058;-74
2022/10/01 10:46:52;;;;;;;14.35;8.70;;;;;;;14.32;96.34;99150.38;4993519;28;20058;-74
2022/10/01 10:49:28;;;;;;;9.70;7.78;;;;;;;14.46;96.73;99145.03;4995076;28;20057;-74
2022/10/01 10:51:59;;;;;;;11.90;6.43;;;;;;;14.41;95.60;99164.97;4996823;28;20062;-75
2022/10/01 10:54:31;;;;;;;9.05;6.65;;;;;;;14.65;94.90;99158.19;4996612;28;20058;-75
2022/10/01 10:57:01;;;;;;;9.65;7.47;;;;;;;15.05;95.16;99158.84;4995676;28;20133;-75
2022/10/01 10:59:33;;;;;;;14.38;6.38;;;;;;;15.96;94.30;99156.94;4995991;28;20404;-74
2022/10/01 11:02:04;;;;;;;9.45;8.48;;;;;;;18.02;92.40;99149.72;4995197;28;20070;-75
2022/10/01 11:04:40;;;;;;;6.10;4.63;;;;;;;20.00;90.59;99156.91;4995495;28;20054;-75
2022/10/01 11:07:09;;;;;;;2.42;2.10;;;;;;;21.11;74.60;99155.38;4995960;28;20061;-75
2022/10/01 11:09:48;;;;;;;3.05;2.30;;;;;;;22.86;73.26;99152.38;4995978;28;20054;-75
2022/10/01 11:12:24;;;;;;;3.40;2.00;;;;;;;23.37;60.98;99141.00;4992384;28;20058;-75
2022/10/01 11:15:15;;;;;;;2.72;1.70;;;;;;;23.67;55.35;99144.91;4995494;28;20495;-75
2022/10/01 11:18:02;;;;;;;2.35;1.48;;;;;;;24.40;53.40;99154.34;4992897;28;20054;-76
2022/10/01 11:20:38;;;;;;;1.60;1.20;;;;;;;24.86;53.15;99148.81;4995421;28;20051;-75
2022/10/01 11:23:36;;;;;;;2.20;1.50;;;;;;;24.27;53.75;99157.06;5006096;28;20065;-75
2022/10/01 11:26:18;;;;;;;2.28;1.80;;;;;;;24.16;52.57;99156.50;5004408;28;20054;-74
2022/10/01 11:28:59;;;;;;;2.70;1.80;;;;;;;24.87;52.98;99168.31;4995559;28;20058;-76
2022/10/01 11:31:38;;;;;;;8.00;1.38;;;;;;;24.69;48.99;99180.16;4998629;28;20046;-76
2022/10/01 11:34:31;;;;;;;4.82;1.30;;;;;;;24.79;48.97;99174.63;4996294;28;20054;-74
2022/10/01 11:37:09;;;;;;;2.70;1.25;;;;;;;24.81;50.63;99177.84;5006435;28;20062;-77
2022/10/01 11:39:44;;;;;;;3.90;1.45;;;;;;;24.79;50.78;99166.09;4994077;28;20057;-75
2022/10/01 11:42:17;;;;;;;5.10;1.63;;;;;;;24.16;51.18;99179.25;4994217;28;20054;-75
2022/10/01 11:44:56;;;;;;;4.22;1.80;;;;;;;24.53;50.72;99180.13;4982393;28;20062;-75
2022/10/01 11:47:43;;;;;;;4.28;1.40;;;;;;;24.56;52.01;99172.72;4993586;28;20055;-74
2022/10/01 11:50:17;;;;;;;3.63;1.85;;;;;;;25.96;50.88;99175.69;4995832;28;20046;-77
2022/10/01 11:52:51;;;;;;;4.53;2.08;;;;;;;27.24;47.26;99175.81;4993417;28;20109;-76
2022/10/01 12:01:09;;;;;;;3.45;1.67;;;;;;;24.69;48.71;99185.03;4999800;28;20065;-77
2022/10/01 12:03:49;;;;;;;4.55;1.90;;;;;;;24.49;51.86;99185.09;4994310;28;20057;-76